sensor_id;sensor_type;location;lat;lon;timestamp;P1;durP1;ratioP1;P2;durP2;ratioP2
7659;SDS011;3872;47.902;8.162;2024-02-04T00:02:06;9.10;;;3.77;;
7659;SDS011;3872;47.902;8.162;2024-02-04T00:04:36;13.50;;;3.60;;
7659;SDS011;3872;47.902;8.162;2024-02-04T00:07:02;9.03;;;4.40;;
7659;SDS011;3872;47.902;8.162;2024-02-04T00:09:29;12.10;;;4.20;;
7659;SDS011;3872;47.902;8.162;2024-02-04T00:11:56;7.30;;;3.10;;
7659;SDS011;3872;47.902;8.162;2024-02-04T00:14:23;9.40;;;3.80;;
7659;SDS011;3872;47.902;8.162;2024-02-04T00:16:50;7.50;;;3.80;;
7659;SDS011;3872;47.902;8.162;2024-02-04T00:19:16;9.40;;;4.80;;
7659;SDS011;3872;47.902;8.162;2024-02-04T00:21:44;8.87;;;4.50;;
7659;SDS011;3872;47.902;8.162;2024-02-04T00:24:11;8.53;;;4.37;;
7659;SDS011;3872;47.902;8.162;2024-02-04T00:26:38;7.60;;;4.10;;
7659;SDS011;3872;47.902;8.162;2024-02-04T00:29:04;9.20;;;3.97;;
7659;SDS011;3872;47.902;8.162;2024-02-04T00:31:31;9.57;;;4.40;;
7659;SDS011;3872;47.902;8.162;2024-02-04T00:33:57;12.70;;;3.90;;
7659;SDS011;3872;47.902;8.162;2024-02-04T00:36:24;9.50;;;4.13;;
7659;SDS011;3872;47.902;8.162;2024-02-04T00:38:52;16.03;;;5.20;;
7659;SDS011;3872;47.902;8.162;2024-02-04T00:41:18;13.40;;;4.53;;
7659;SDS011;3872;47.902;8.162;2024-02-04T00:43:45;9.70;;;4.13;;
7659;SDS011;3872;47.902;8.162;2024-02-04T00:46:12;11.20;;;5.00;;
7659;SDS011;3872;47.902;8.162;2024-02-04T00:48:38;9.10;;;4.50;;
7659;SDS011;3872;47.902;8.162;2024-02-04T00:51:06;8.63;;;4.07;;
7659;SDS011;3872;47.902;8.162;2024-02-04T00:53:33;17.13;;;4.50;;
7659;SDS011;3872;47.902;8.162;2024-02-04T00:56:01;9.73;;;4.23;;
7659;SDS011;3872;47.902;8.162;2024-02-04T00:58:28;8.27;;;3.93;;
7659;SDS011;3872;47.902;8.162;2024-02-04T01:00:55;29.27;;;4.83;;
7659;SDS011;3872;47.902;8.162;2024-02-04T01:03:21;13.63;;;3.63;;
7659;SDS011;3872;47.902;8.162;2024-02-04T01:05:48;10.17;;;3.87;;
7659;SDS011;3872;47.902;8.162;2024-02-04T01:08:15;8.93;;;4.00;;
7659;SDS011;3872;47.902;8.162;2024-02-04T01:10:46;10.10;;;4.10;;
7659;SDS011;3872;47.902;8.162;2024-02-04T01:13:14;15.50;;;4.27;;
7659;SDS011;3872;47.902;8.162;2024-02-04T01:15:41;32.70;;;5.57;;
7659;SDS011;3872;47.902;8.162;2024-02-04T01:18:07;9.97;;;3.40;;
7659;SDS011;3872;47.902;8.162;2024-02-04T01:20:34;16.40;;;3.57;;
7659;SDS011;3872;47.902;8.162;2024-02-04T01:23:02;10.40;;;3.80;;
7659;SDS011;3872;47.902;8.162;2024-02-04T01:25:29;7.50;;;3.70;;
7659;SDS011;3872;47.902;8.162;2024-02-04T01:27:56;14.90;;;4.20;;
7659;SDS011;3872;47.902;8.162;2024-02-04T01:30:24;13.80;;;3.73;;
7659;SDS011;3872;47.902;8.162;2024-02-04T01:32:50;49.67;;;4.63;;
7659;SDS011;3872;47.902;8.162;2024-02-04T01:35:17;6.80;;;2.90;;
7659;SDS011;3872;47.902;8.162;2024-02-04T01:37:44;6.90;;;3.40;;
7659;SDS011;3872;47.902;8.162;2024-02-04T01:40:13;10.10;;;3.37;;
7659;SDS011;3872;47.902;8.162;2024-02-04T01:42:40;8.13;;;2.97;;
7659;SDS011;3872;47.902;8.162;2024-02-04T01:45:07;7.77;;;3.57;;
7659;SDS011;3872;47.902;8.162;2024-02-04T01:47:35;6.03;;;2.80;;
7659;SDS011;3872;47.902;8.162;2024-02-04T01:50:02;7.70;;;3.53;;
7659;SDS011;3872;47.902;8.162;2024-02-04T01:52:30;8.73;;;3.37;;
7659;SDS011;3872;47.902;8.162;2024-02-04T01:54:57;7.00;;;3.10;;
7659;SDS011;3872;47.902;8.162;2024-02-04T01:57:26;10.33;;;3.87;;
7659;SDS011;3872;47.902;8.162;2024-02-04T01:59:53;6.83;;;2.50;;
7659;SDS011;3872;47.902;8.162;2024-02-04T02:02:22;13.80;;;3.17;;
7659;SDS011;3872;47.902;8.162;2024-02-04T02:04:50;7.60;;;3.20;;
7659;SDS011;3872;47.902;8.162;2024-02-04T02:07:17;33.43;;;3.80;;
7659;SDS011;3872;47.902;8.162;2024-02-04T02:09:45;16.80;;;2.67;;
7659;SDS011;3872;47.902;8.162;2024-02-04T02:12:12;10.97;;;3.27;;
7659;SDS011;3872;47.902;8.162;2024-02-04T02:14:44;12.80;;;3.30;;
7659;SDS011;3872;47.902;8.162;2024-02-04T02:17:15;15.07;;;2.93;;
7659;SDS011;3872;47.902;8.162;2024-02-04T02:19:53;7.53;;;3.20;;
7659;SDS011;3872;47.902;8.162;2024-02-04T02:22:27;6.20;;;2.93;;
7659;SDS011;3872;47.902;8.162;2024-02-04T02:24:57;6.00;;;3.03;;
7659;SDS011;3872;47.902;8.162;2024-02-04T02:27:25;5.07;;;2.40;;
7659;SDS011;3872;47.902;8.162;2024-02-04T02:29:52;4.80;;;2.60;;
7659;SDS011;3872;47.902;8.162;2024-02-04T02:32:19;10.37;;;3.63;;
7659;SDS011;3872;47.902;8.162;2024-02-04T02:34:46;14.93;;;3.10;;
7659;SDS011;3872;47.902;8.162;2024-02-04T02:37:16;6.90;;;2.87;;
7659;SDS011;3872;47.902;8.162;2024-02-04T02:39:55;6.43;;;3.27;;
7659;SDS011;3872;47.902;8.162;2024-02-04T02:42:26;8.43;;;3.00;;
7659;SDS011;3872;47.902;8.162;2024-02-04T02:44:55;12.00;;;2.40;;
7659;SDS011;3872;47.902;8.162;2024-02-04T02:47:22;8.40;;;2.57;;
7659;SDS011;3872;47.902;8.162;2024-02-04T02:49:51;18.47;;;3.87;;
7659;SDS011;3872;47.902;8.162;2024-02-04T02:52:19;12.23;;;2.90;;
7659;SDS011;3872;47.902;8.162;2024-02-04T02:54:46;22.53;;;2.83;;
7659;SDS011;3872;47.902;8.162;2024-02-04T02:57:14;10.77;;;2.83;;
7659;SDS011;3872;47.902;8.162;2024-02-04T02:59:41;32.97;;;3.20;;
7659;SDS011;3872;47.902;8.162;2024-02-04T03:02:07;24.33;;;3.43;;
7659;SDS011;3872;47.902;8.162;2024-02-04T03:04:34;8.40;;;2.90;;
7659;SDS011;3872;47.902;8.162;2024-02-04T03:07:01;8.33;;;2.80;;
7659;SDS011;3872;47.902;8.162;2024-02-04T03:09:27;9.93;;;2.80;;
7659;SDS011;3872;47.902;8.162;2024-02-04T03:11:54;5.73;;;2.70;;
7659;SDS011;3872;47.902;8.162;2024-02-04T03:14:22;5.37;;;2.50;;
7659;SDS011;3872;47.902;8.162;2024-02-04T03:16:48;6.83;;;2.50;;
7659;SDS011;3872;47.902;8.162;2024-02-04T03:19:15;19.07;;;2.90;;
7659;SDS011;3872;47.902;8.162;2024-02-04T03:21:42;9.30;;;2.67;;
7659;SDS011;3872;47.902;8.162;2024-02-04T03:24:09;5.93;;;2.87;;
7659;SDS011;3872;47.902;8.162;2024-02-04T03:26:36;5.10;;;2.03;;
7659;SDS011;3872;47.902;8.162;2024-02-04T03:29:02;6.20;;;2.03;;
7659;SDS011;3872;47.902;8.162;2024-02-04T03:31:31;8.07;;;2.70;;
7659;SDS011;3872;47.902;8.162;2024-02-04T03:33:58;4.70;;;2.07;;
7659;SDS011;3872;47.902;8.162;2024-02-04T03:36:25;4.93;;;2.10;;
7659;SDS011;3872;47.902;8.162;2024-02-04T03:38:52;4.47;;;1.87;;
7659;SDS011;3872;47.902;8.162;2024-02-04T03:41:19;5.60;;;2.00;;
7659;SDS011;3872;47.902;8.162;2024-02-04T03:43:46;9.13;;;2.80;;
7659;SDS011;3872;47.902;8.162;2024-02-04T03:46:13;5.50;;;2.30;;
7659;SDS011;3872;47.902;8.162;2024-02-04T03:48:42;7.47;;;2.63;;
7659;SDS011;3872;47.902;8.162;2024-02-04T03:51:14;7.10;;;2.17;;
7659;SDS011;3872;47.902;8.162;2024-02-04T03:53:42;8.90;;;2.30;;
7659;SDS011;3872;47.902;8.162;2024-02-04T03:56:08;6.13;;;2.23;;
7659;SDS011;3872;47.902;8.162;2024-02-04T03:58:35;6.07;;;2.40;;
7659;SDS011;3872;47.902;8.162;2024-02-04T04:01:02;5.50;;;2.47;;
7659;SDS011;3872;47.902;8.162;2024-02-04T04:03:28;6.60;;;2.90;;
7659;SDS011;3872;47.902;8.162;2024-02-04T04:05:56;5.87;;;2.50;;
7659;SDS011;3872;47.902;8.162;2024-02-04T04:08:23;6.10;;;3.37;;
7659;SDS011;3872;47.902;8.162;2024-02-04T04:10:50;7.53;;;3.27;;
7659;SDS011;3872;47.902;8.162;2024-02-04T04:13:17;6.30;;;2.53;;
7659;SDS011;3872;47.902;8.162;2024-02-04T04:15:43;5.20;;;2.60;;
7659;SDS011;3872;47.902;8.162;2024-02-04T04:18:10;4.80;;;2.03;;
7659;SDS011;3872;47.902;8.162;2024-02-04T04:20:37;8.03;;;2.40;;
7659;SDS011;3872;47.902;8.162;2024-02-04T04:23:06;12.93;;;2.37;;
7659;SDS011;3872;47.902;8.162;2024-02-04T04:25:32;7.20;;;2.60;;
7659;SDS011;3872;47.902;8.162;2024-02-04T04:27:59;5.80;;;2.80;;
7659;SDS011;3872;47.902;8.162;2024-02-04T04:30:25;5.97;;;3.30;;
7659;SDS011;3872;47.902;8.162;2024-02-04T04:32:52;9.60;;;2.63;;
7659;SDS011;3872;47.902;8.162;2024-02-04T04:35:18;24.17;;;3.70;;
7659;SDS011;3872;47.902;8.162;2024-02-04T04:37:45;5.90;;;2.53;;
7659;SDS011;3872;47.902;8.162;2024-02-04T04:40:13;4.77;;;2.80;;
7659;SDS011;3872;47.902;8.162;2024-02-04T04:42:40;5.40;;;1.97;;
7659;SDS011;3872;47.902;8.162;2024-02-04T04:45:06;6.03;;;2.40;;
7659;SDS011;3872;47.902;8.162;2024-02-04T04:47:34;20.67;;;3.30;;
7659;SDS011;3872;47.902;8.162;2024-02-04T04:50:00;21.03;;;2.77;;
7659;SDS011;3872;47.902;8.162;2024-02-04T04:52:27;5.87;;;2.90;;
7659;SDS011;3872;47.902;8.162;2024-02-04T04:54:54;7.97;;;3.00;;
7659;SDS011;3872;47.902;8.162;2024-02-04T04:57:22;6.70;;;2.37;;
7659;SDS011;3872;47.902;8.162;2024-02-04T04:59:49;4.53;;;2.30;;
7659;SDS011;3872;47.902;8.162;2024-02-04T05:02:15;33.63;;;3.30;;
7659;SDS011;3872;47.902;8.162;2024-02-04T05:04:42;30.50;;;2.93;;
7659;SDS011;3872;47.902;8.162;2024-02-04T05:07:09;26.37;;;2.87;;
7659;SDS011;3872;47.902;8.162;2024-02-04T05:09:35;38.07;;;3.30;;
7659;SDS011;3872;47.902;8.162;2024-02-04T05:12:02;42.40;;;3.33;;
7659;SDS011;3872;47.902;8.162;2024-02-04T05:14:31;5.60;;;2.13;;
7659;SDS011;3872;47.902;8.162;2024-02-04T05:16:57;17.03;;;3.23;;
7659;SDS011;3872;47.902;8.162;2024-02-04T05:19:24;4.70;;;2.00;;
7659;SDS011;3872;47.902;8.162;2024-02-04T05:21:50;3.90;;;1.87;;
7659;SDS011;3872;47.902;8.162;2024-02-04T05:24:17;12.20;;;2.07;;
7659;SDS011;3872;47.902;8.162;2024-02-04T05:26:43;83.97;;;5.87;;
7659;SDS011;3872;47.902;8.162;2024-02-04T05:29:10;7.27;;;2.10;;
7659;SDS011;3872;47.902;8.162;2024-02-04T05:31:41;5.93;;;2.20;;
7659;SDS011;3872;47.902;8.162;2024-02-04T05:34:08;4.93;;;2.10;;
7659;SDS011;3872;47.902;8.162;2024-02-04T05:36:34;4.77;;;1.80;;
7659;SDS011;3872;47.902;8.162;2024-02-04T05:39:08;88.13;;;6.00;;
7659;SDS011;3872;47.902;8.162;2024-02-04T05:41:35;15.33;;;2.20;;
7659;SDS011;3872;47.902;8.162;2024-02-04T05:44:02;28.13;;;2.80;;
7659;SDS011;3872;47.902;8.162;2024-02-04T05:46:29;12.13;;;2.13;;
7659;SDS011;3872;47.902;8.162;2024-02-04T05:48:57;5.60;;;1.73;;
7659;SDS011;3872;47.902;8.162;2024-02-04T05:51:23;59.50;;;3.67;;
7659;SDS011;3872;47.902;8.162;2024-02-04T05:53:50;19.50;;;2.83;;
7659;SDS011;3872;47.902;8.162;2024-02-04T05:56:16;10.30;;;1.97;;
7659;SDS011;3872;47.902;8.162;2024-02-04T05:58:43;7.73;;;1.87;;
7659;SDS011;3872;47.902;8.162;2024-02-04T06:01:10;18.73;;;2.60;;
7659;SDS011;3872;47.902;8.162;2024-02-04T06:03:37;12.97;;;1.80;;
7659;SDS011;3872;47.902;8.162;2024-02-04T06:06:05;4.43;;;1.40;;
7659;SDS011;3872;47.902;8.162;2024-02-04T06:08:31;6.30;;;1.90;;
7659;SDS011;3872;47.902;8.162;2024-02-04T06:10:58;3.80;;;1.60;;
7659;SDS011;3872;47.902;8.162;2024-02-04T06:13:24;3.87;;;1.33;;
7659;SDS011;3872;47.902;8.162;2024-02-04T06:15:51;7.70;;;2.27;;
7659;SDS011;3872;47.902;8.162;2024-02-04T06:18:18;6.90;;;2.13;;
7659;SDS011;3872;47.902;8.162;2024-02-04T06:20:44;5.03;;;1.97;;
7659;SDS011;3872;47.902;8.162;2024-02-04T06:23:12;4.93;;;1.47;;
7659;SDS011;3872;47.902;8.162;2024-02-04T06:25:38;4.87;;;1.30;;
7659;SDS011;3872;47.902;8.162;2024-02-04T06:28:05;4.13;;;1.00;;
7659;SDS011;3872;47.902;8.162;2024-02-04T06:30:32;4.70;;;1.30;;
7659;SDS011;3872;47.902;8.162;2024-02-04T06:32:58;3.20;;;0.90;;
7659;SDS011;3872;47.902;8.162;2024-02-04T06:35:25;4.13;;;1.47;;
7659;SDS011;3872;47.902;8.162;2024-02-04T06:37:51;41.87;;;2.70;;
7659;SDS011;3872;47.902;8.162;2024-02-04T06:40:19;11.60;;;1.53;;
7659;SDS011;3872;47.902;8.162;2024-02-04T06:42:46;12.77;;;2.17;;
7659;SDS011;3872;47.902;8.162;2024-02-04T06:45:12;16.33;;;2.43;;
7659;SDS011;3872;47.902;8.162;2024-02-04T06:47:39;47.57;;;3.50;;
7659;SDS011;3872;47.902;8.162;2024-02-04T06:50:09;37.20;;;3.10;;
7659;SDS011;3872;47.902;8.162;2024-02-04T06:52:39;34.23;;;3.80;;
7659;SDS011;3872;47.902;8.162;2024-02-04T06:55:05;73.83;;;3.30;;
7659;SDS011;3872;47.902;8.162;2024-02-04T06:57:34;21.47;;;2.77;;
7659;SDS011;3872;47.902;8.162;2024-02-04T07:00:02;13.27;;;1.90;;
7659;SDS011;3872;47.902;8.162;2024-02-04T07:02:30;9.23;;;1.60;;
7659;SDS011;3872;47.902;8.162;2024-02-04T07:04:57;8.20;;;2.00;;
7659;SDS011;3872;47.902;8.162;2024-02-04T07:07:23;4.53;;;1.77;;
7659;SDS011;3872;47.902;8.162;2024-02-04T07:09:50;4.77;;;1.57;;
7659;SDS011;3872;47.902;8.162;2024-02-04T07:12:16;5.90;;;1.40;;
7659;SDS011;3872;47.902;8.162;2024-02-04T07:14:44;5.97;;;1.53;;
7659;SDS011;3872;47.902;8.162;2024-02-04T07:17:11;3.90;;;1.20;;
7659;SDS011;3872;47.902;8.162;2024-02-04T07:19:37;7.00;;;1.73;;
7659;SDS011;3872;47.902;8.162;2024-02-04T07:22:04;5.37;;;1.60;;
7659;SDS011;3872;47.902;8.162;2024-02-04T07:24:31;3.93;;;1.67;;
7659;SDS011;3872;47.902;8.162;2024-02-04T07:26:57;5.50;;;1.97;;
7659;SDS011;3872;47.902;8.162;2024-02-04T07:29:24;10.57;;;1.50;;
7659;SDS011;3872;47.902;8.162;2024-02-04T07:31:52;5.07;;;2.07;;
7659;SDS011;3872;47.902;8.162;2024-02-04T07:34:18;12.10;;;1.73;;
7659;SDS011;3872;47.902;8.162;2024-02-04T07:36:45;5.97;;;2.40;;
7659;SDS011;3872;47.902;8.162;2024-02-04T07:39:12;4.43;;;1.80;;
7659;SDS011;3872;47.902;8.162;2024-02-04T07:41:38;4.30;;;2.00;;
7659;SDS011;3872;47.902;8.162;2024-02-04T07:44:04;3.90;;;1.50;;
7659;SDS011;3872;47.902;8.162;2024-02-04T07:46:31;3.63;;;1.33;;
7659;SDS011;3872;47.902;8.162;2024-02-04T07:48:59;3.70;;;1.43;;
7659;SDS011;3872;47.902;8.162;2024-02-04T07:51:26;4.60;;;2.10;;
7659;SDS011;3872;47.902;8.162;2024-02-04T07:53:53;3.70;;;1.50;;
7659;SDS011;3872;47.902;8.162;2024-02-04T07:56:19;4.10;;;1.60;;
7659;SDS011;3872;47.902;8.162;2024-02-04T07:58:46;3.83;;;1.50;;
7659;SDS011;3872;47.902;8.162;2024-02-04T08:01:13;4.00;;;1.20;;
7659;SDS011;3872;47.902;8.162;2024-02-04T08:03:39;4.97;;;1.70;;
7659;SDS011;3872;47.902;8.162;2024-02-04T08:06:07;4.10;;;1.13;;
7659;SDS011;3872;47.902;8.162;2024-02-04T08:08:34;3.60;;;1.10;;
7659;SDS011;3872;47.902;8.162;2024-02-04T08:11:01;3.53;;;1.07;;
7659;SDS011;3872;47.902;8.162;2024-02-04T08:13:28;4.13;;;1.50;;
7659;SDS011;3872;47.902;8.162;2024-02-04T08:15:54;7.17;;;1.30;;
7659;SDS011;3872;47.902;8.162;2024-02-04T08:18:21;6.03;;;1.40;;
7659;SDS011;3872;47.902;8.162;2024-02-04T08:20:47;3.80;;;1.10;;
7659;SDS011;3872;47.902;8.162;2024-02-04T08:23:15;3.80;;;1.20;;
7659;SDS011;3872;47.902;8.162;2024-02-04T08:25:42;4.77;;;0.80;;
7659;SDS011;3872;47.902;8.162;2024-02-04T08:28:08;4.70;;;1.40;;
7659;SDS011;3872;47.902;8.162;2024-02-04T08:30:35;4.20;;;0.93;;
7659;SDS011;3872;47.902;8.162;2024-02-04T08:33:01;8.73;;;1.30;;
7659;SDS011;3872;47.902;8.162;2024-02-04T08:35:28;3.50;;;1.20;;
7659;SDS011;3872;47.902;8.162;2024-02-04T08:37:55;3.40;;;0.80;;
7659;SDS011;3872;47.902;8.162;2024-02-04T08:40:23;4.30;;;1.20;;
7659;SDS011;3872;47.902;8.162;2024-02-04T08:42:49;8.80;;;1.10;;
7659;SDS011;3872;47.902;8.162;2024-02-04T08:45:16;3.63;;;1.00;;
7659;SDS011;3872;47.902;8.162;2024-02-04T08:47:42;3.53;;;0.90;;
7659;SDS011;3872;47.902;8.162;2024-02-04T08:50:09;3.87;;;0.83;;
7659;SDS011;3872;47.902;8.162;2024-02-04T08:52:37;3.27;;;0.80;;
7659;SDS011;3872;47.902;8.162;2024-02-04T08:55:04;3.30;;;0.90;;
7659;SDS011;3872;47.902;8.162;2024-02-04T08:57:32;3.20;;;0.70;;
7659;SDS011;3872;47.902;8.162;2024-02-04T08:59:59;4.00;;;0.80;;
7659;SDS011;3872;47.902;8.162;2024-02-04T09:02:26;3.80;;;0.70;;
7659;SDS011;3872;47.902;8.162;2024-02-04T09:04:52;3.40;;;0.80;;
7659;SDS011;3872;47.902;8.162;2024-02-04T09:07:19;3.50;;;1.00;;
7659;SDS011;3872;47.902;8.162;2024-02-04T09:09:46;3.50;;;0.90;;
7659;SDS011;3872;47.902;8.162;2024-02-04T09:12:12;3.67;;;0.90;;
7659;SDS011;3872;47.902;8.162;2024-02-04T09:14:40;4.03;;;0.90;;
7659;SDS011;3872;47.902;8.162;2024-02-04T09:17:07;3.60;;;0.90;;
7659;SDS011;3872;47.902;8.162;2024-02-04T09:19:35;3.57;;;0.77;;
7659;SDS011;3872;47.902;8.162;2024-02-04T09:22:01;3.87;;;1.67;;
7659;SDS011;3872;47.902;8.162;2024-02-04T09:24:29;4.33;;;1.10;;
7659;SDS011;3872;47.902;8.162;2024-02-04T09:26:56;4.10;;;1.33;;
7659;SDS011;3872;47.902;8.162;2024-02-04T09:29:22;3.30;;;0.80;;
7659;SDS011;3872;47.902;8.162;2024-02-04T09:31:51;3.80;;;0.93;;
7659;SDS011;3872;47.902;8.162;2024-02-04T09:34:19;4.00;;;1.00;;
7659;SDS011;3872;47.902;8.162;2024-02-04T09:36:45;3.63;;;1.27;;
7659;SDS011;3872;47.902;8.162;2024-02-04T09:39:12;4.23;;;1.00;;
7659;SDS011;3872;47.902;8.162;2024-02-04T09:41:39;3.73;;;1.00;;
7659;SDS011;3872;47.902;8.162;2024-02-04T09:44:05;3.40;;;0.80;;
7659;SDS011;3872;47.902;8.162;2024-02-04T09:46:33;3.30;;;0.77;;
7659;SDS011;3872;47.902;8.162;2024-02-04T09:49:01;3.47;;;0.77;;
7659;SDS011;3872;47.902;8.162;2024-02-04T09:51:28;3.37;;;0.80;;
7659;SDS011;3872;47.902;8.162;2024-02-04T09:53:56;3.50;;;0.70;;
7659;SDS011;3872;47.902;8.162;2024-02-04T09:56:27;3.63;;;0.70;;
7659;SDS011;3872;47.902;8.162;2024-02-04T09:58:56;3.20;;;0.60;;
7659;SDS011;3872;47.902;8.162;2024-02-04T10:01:23;4.33;;;0.80;;
7659;SDS011;3872;47.902;8.162;2024-02-04T10:03:50;4.30;;;1.13;;
7659;SDS011;3872;47.902;8.162;2024-02-04T10:06:18;3.27;;;0.73;;
7659;SDS011;3872;47.902;8.162;2024-02-04T10:08:45;3.30;;;0.90;;
7659;SDS011;3872;47.902;8.162;2024-02-04T10:11:13;3.30;;;0.70;;
7659;SDS011;3872;47.902;8.162;2024-02-04T10:13:44;3.50;;;0.93;;
7659;SDS011;3872;47.902;8.162;2024-02-04T10:16:11;4.73;;;0.80;;
7659;SDS011;3872;47.902;8.162;2024-02-04T10:18:40;3.40;;;0.87;;
7659;SDS011;3872;47.902;8.162;2024-02-04T10:21:14;3.27;;;0.70;;
7659;SDS011;3872;47.902;8.162;2024-02-04T10:23:42;4.70;;;0.90;;
7659;SDS011;3872;47.902;8.162;2024-02-04T10:26:09;3.20;;;0.67;;
7659;SDS011;3872;47.902;8.162;2024-02-04T10:28:36;4.97;;;0.97;;
7659;SDS011;3872;47.902;8.162;2024-02-04T10:31:02;3.40;;;0.73;;
7659;SDS011;3872;47.902;8.162;2024-02-04T10:33:29;3.90;;;1.17;;
7659;SDS011;3872;47.902;8.162;2024-02-04T10:35:57;3.40;;;0.70;;
7659;SDS011;3872;47.902;8.162;2024-02-04T10:38:23;4.37;;;0.70;;
7659;SDS011;3872;47.902;8.162;2024-02-04T10:40:52;3.40;;;0.80;;
7659;SDS011;3872;47.902;8.162;2024-02-04T10:43:20;3.50;;;0.80;;
7659;SDS011;3872;47.902;8.162;2024-02-04T10:45:49;3.50;;;0.83;;
7659;SDS011;3872;47.902;8.162;2024-02-04T10:48:19;4.07;;;1.07;;
7659;SDS011;3872;47.902;8.162;2024-02-04T10:50:45;3.30;;;0.70;;
7659;SDS011;3872;47.902;8.162;2024-02-04T10:53:13;3.60;;;1.10;;
7659;SDS011;3872;47.902;8.162;2024-02-04T10:55:41;3.30;;;0.90;;
7659;SDS011;3872;47.902;8.162;2024-02-04T10:58:10;4.00;;;0.93;;
7659;SDS011;3872;47.902;8.162;2024-02-04T11:00:39;3.40;;;0.80;;
7659;SDS011;3872;47.902;8.162;2024-02-04T11:03:07;4.80;;;0.60;;
7659;SDS011;3872;47.902;8.162;2024-02-04T11:05:35;3.50;;;0.90;;
7659;SDS011;3872;47.902;8.162;2024-02-04T11:08:04;3.50;;;0.80;;
7659;SDS011;3872;47.902;8.162;2024-02-04T11:10:31;3.90;;;0.63;;
7659;SDS011;3872;47.902;8.162;2024-02-04T11:12:58;3.30;;;0.83;;
7659;SDS011;3872;47.902;8.162;2024-02-04T11:15:29;4.63;;;1.20;;
7659;SDS011;3872;47.902;8.162;2024-02-04T11:18:05;4.43;;;0.63;;
7659;SDS011;3872;47.902;8.162;2024-02-04T11:20:57;3.40;;;0.70;;
7659;SDS011;3872;47.902;8.162;2024-02-04T11:23:39;3.50;;;0.63;;
7659;SDS011;3872;47.902;8.162;2024-02-04T11:26:13;3.23;;;0.73;;
7659;SDS011;3872;47.902;8.162;2024-02-04T11:28:42;3.40;;;0.80;;
7659;SDS011;3872;47.902;8.162;2024-02-04T11:31:14;3.87;;;0.80;;
7659;SDS011;3872;47.902;8.162;2024-02-04T11:33:43;3.60;;;0.80;;
7659;SDS011;3872;47.902;8.162;2024-02-04T11:36:12;3.73;;;0.80;;
7659;SDS011;3872;47.902;8.162;2024-02-04T11:38:40;5.40;;;0.90;;
7659;SDS011;3872;47.902;8.162;2024-02-04T11:41:07;3.53;;;0.90;;
7659;SDS011;3872;47.902;8.162;2024-02-04T11:43:34;3.50;;;0.80;;
7659;SDS011;3872;47.902;8.162;2024-02-04T11:46:02;3.27;;;0.63;;
7659;SDS011;3872;47.902;8.162;2024-02-04T11:48:32;3.70;;;1.17;;
7659;SDS011;3872;47.902;8.162;2024-02-04T11:51:02;5.70;;;1.00;;
7659;SDS011;3872;47.902;8.162;2024-02-04T11:53:30;3.33;;;0.60;;
7659;SDS011;3872;47.902;8.162;2024-02-04T11:55:58;4.10;;;0.83;;
7659;SDS011;3872;47.902;8.162;2024-02-04T11:58:26;3.43;;;0.70;;
7659;SDS011;3872;47.902;8.162;2024-02-04T12:00:53;3.47;;;0.70;;
7659;SDS011;3872;47.902;8.162;2024-02-04T12:03:29;3.90;;;0.80;;
7659;SDS011;3872;47.902;8.162;2024-02-04T12:05:57;3.40;;;0.70;;
7659;SDS011;3872;47.902;8.162;2024-02-04T12:08:24;4.43;;;0.70;;
7659;SDS011;3872;47.902;8.162;2024-02-04T12:10:51;7.57;;;0.90;;
7659;SDS011;3872;47.902;8.162;2024-02-04T12:13:18;3.70;;;1.00;;
7659;SDS011;3872;47.902;8.162;2024-02-04T12:15:45;3.43;;;0.83;;
7659;SDS011;3872;47.902;8.162;2024-02-04T12:18:12;3.43;;;0.90;;
7659;SDS011;3872;47.902;8.162;2024-02-04T12:20:40;3.30;;;0.70;;
7659;SDS011;3872;47.902;8.162;2024-02-04T12:23:07;3.90;;;0.90;;
7659;SDS011;3872;47.902;8.162;2024-02-04T12:25:34;6.60;;;0.80;;
7659;SDS011;3872;47.902;8.162;2024-02-04T12:28:01;3.40;;;0.70;;
7659;SDS011;3872;47.902;8.162;2024-02-04T12:30:29;3.40;;;0.73;;
7659;SDS011;3872;47.902;8.162;2024-02-04T12:32:57;3.60;;;0.83;;
7659;SDS011;3872;47.902;8.162;2024-02-04T12:35:23;3.40;;;0.70;;
7659;SDS011;3872;47.902;8.162;2024-02-04T12:37:52;4.30;;;0.73;;
7659;SDS011;3872;47.902;8.162;2024-02-04T12:40:22;3.37;;;0.80;;
7659;SDS011;3872;47.902;8.162;2024-02-04T12:42:52;4.67;;;0.90;;
7659;SDS011;3872;47.902;8.162;2024-02-04T12:45:20;3.70;;;0.83;;
7659;SDS011;3872;47.902;8.162;2024-02-04T12:47:48;3.30;;;0.80;;
7659;SDS011;3872;47.902;8.162;2024-02-04T12:50:16;5.50;;;0.80;;
7659;SDS011;3872;47.902;8.162;2024-02-04T12:52:43;3.43;;;0.77;;
7659;SDS011;3872;47.902;8.162;2024-02-04T12:55:20;3.30;;;0.60;;
7659;SDS011;3872;47.902;8.162;2024-02-04T12:57:48;3.70;;;0.60;;
7659;SDS011;3872;47.902;8.162;2024-02-04T13:00:17;3.47;;;0.77;;
7659;SDS011;3872;47.902;8.162;2024-02-04T13:02:44;3.50;;;0.70;;
7659;SDS011;3872;47.902;8.162;2024-02-04T13:05:21;3.40;;;0.77;;
7659;SDS011;3872;47.902;8.162;2024-02-04T13:07:50;3.40;;;0.70;;
7659;SDS011;3872;47.902;8.162;2024-02-04T13:10:19;4.23;;;0.70;;
7659;SDS011;3872;47.902;8.162;2024-02-04T13:12:45;3.30;;;0.70;;
7659;SDS011;3872;47.902;8.162;2024-02-04T13:15:12;3.40;;;0.87;;
7659;SDS011;3872;47.902;8.162;2024-02-04T13:17:38;3.40;;;0.70;;
7659;SDS011;3872;47.902;8.162;2024-02-04T13:20:05;3.30;;;0.77;;
7659;SDS011;3872;47.902;8.162;2024-02-04T13:22:34;3.97;;;0.80;;
7659;SDS011;3872;47.902;8.162;2024-02-04T13:25:01;3.40;;;0.73;;
7659;SDS011;3872;47.902;8.162;2024-02-04T13:27:29;3.30;;;0.70;;
7659;SDS011;3872;47.902;8.162;2024-02-04T13:29:56;3.27;;;0.60;;
7659;SDS011;3872;47.902;8.162;2024-02-04T13:32:23;17.53;;;1.53;;
7659;SDS011;3872;47.902;8.162;2024-02-04T13:34:49;6.23;;;2.00;;
7659;SDS011;3872;47.902;8.162;2024-02-04T13:37:16;3.60;;;0.93;;
7659;SDS011;3872;47.902;8.162;2024-02-04T13:39:43;7.30;;;3.00;;
7659;SDS011;3872;47.902;8.162;2024-02-04T13:42:10;3.40;;;0.80;;
7659;SDS011;3872;47.902;8.162;2024-02-04T13:44:38;4.33;;;0.87;;
7659;SDS011;3872;47.902;8.162;2024-02-04T13:47:04;3.90;;;0.80;;
7659;SDS011;3872;47.902;8.162;2024-02-04T13:49:32;3.40;;;0.70;;
7659;SDS011;3872;47.902;8.162;2024-02-04T13:51:58;3.50;;;0.60;;
7659;SDS011;3872;47.902;8.162;2024-02-04T13:54:25;3.20;;;0.50;;
7659;SDS011;3872;47.902;8.162;2024-02-04T13:56:52;3.30;;;0.60;;
7659;SDS011;3872;47.902;8.162;2024-02-04T13:59:19;3.20;;;0.50;;
7659;SDS011;3872;47.902;8.162;2024-02-04T14:01:47;4.10;;;0.53;;
7659;SDS011;3872;47.902;8.162;2024-02-04T14:04:15;3.13;;;0.50;;
7659;SDS011;3872;47.902;8.162;2024-02-04T14:06:41;3.20;;;0.50;;
7659;SDS011;3872;47.902;8.162;2024-02-04T14:09:08;3.23;;;0.60;;
7659;SDS011;3872;47.902;8.162;2024-02-04T14:11:37;3.10;;;0.50;;
7659;SDS011;3872;47.902;8.162;2024-02-04T14:14:04;3.40;;;0.60;;
7659;SDS011;3872;47.902;8.162;2024-02-04T14:16:30;3.20;;;0.60;;
7659;SDS011;3872;47.902;8.162;2024-02-04T14:18:58;3.30;;;0.60;;
7659;SDS011;3872;47.902;8.162;2024-02-04T14:21:25;3.20;;;0.50;;
7659;SDS011;3872;47.902;8.162;2024-02-04T14:23:51;6.33;;;0.73;;
7659;SDS011;3872;47.902;8.162;2024-02-04T14:26:18;3.20;;;0.53;;
7659;SDS011;3872;47.902;8.162;2024-02-04T14:28:47;3.23;;;0.50;;
7659;SDS011;3872;47.902;8.162;2024-02-04T14:31:14;3.70;;;0.70;;
7659;SDS011;3872;47.902;8.162;2024-02-04T14:33:40;3.13;;;0.50;;
7659;SDS011;3872;47.902;8.162;2024-02-04T14:36:09;3.90;;;0.60;;
7659;SDS011;3872;47.902;8.162;2024-02-04T14:38:35;3.20;;;0.50;;
7659;SDS011;3872;47.902;8.162;2024-02-04T14:41:04;3.40;;;0.53;;
7659;SDS011;3872;47.902;8.162;2024-02-04T14:43:31;4.27;;;0.50;;
7659;SDS011;3872;47.902;8.162;2024-02-04T14:45:58;3.30;;;0.60;;
7659;SDS011;3872;47.902;8.162;2024-02-04T14:48:24;3.20;;;0.60;;
7659;SDS011;3872;47.902;8.162;2024-02-04T14:50:51;3.73;;;1.13;;
7659;SDS011;3872;47.902;8.162;2024-02-04T14:53:19;3.20;;;0.60;;
7659;SDS011;3872;47.902;8.162;2024-02-04T14:55:46;3.20;;;0.50;;
7659;SDS011;3872;47.902;8.162;2024-02-04T14:58:13;3.30;;;0.60;;
7659;SDS011;3872;47.902;8.162;2024-02-04T15:00:39;3.40;;;0.60;;
7659;SDS011;3872;47.902;8.162;2024-02-04T15:03:06;3.20;;;0.50;;
7659;SDS011;3872;47.902;8.162;2024-02-04T15:05:32;3.20;;;0.50;;
7659;SDS011;3872;47.902;8.162;2024-02-04T15:07:59;4.17;;;0.80;;
7659;SDS011;3872;47.902;8.162;2024-02-04T15:10:28;3.33;;;0.70;;
7659;SDS011;3872;47.902;8.162;2024-02-04T15:12:54;3.93;;;0.70;;
7659;SDS011;3872;47.902;8.162;2024-02-04T15:15:22;3.60;;;0.93;;